createdAt,value
2018-03-19T00:01:59.045Z,97758.55
2018-03-19T00:04:26.710Z,97759.96
2018-03-19T00:06:54.274Z,97758.64
2018-03-19T00:09:21.868Z,97765.23
2018-03-19T00:11:49.484Z,97781.72
2018-03-19T00:14:17.100Z,97777.88
2018-03-19T00:16:44.680Z,97775.48
2018-03-19T00:19:12.374Z,97777.86
2018-03-19T00:21:39.954Z,97777.02
2018-03-19T00:24:07.524Z,97777.65
2018-03-19T00:26:35.152Z,97779.95
2018-03-19T00:29:02.740Z,97781.19
2018-03-19T00:31:30.325Z,97787.08
2018-03-19T00:33:58.018Z,97784.31
2018-03-19T00:36:25.587Z,97774.80
2018-03-19T00:38:53.225Z,97793.98
2018-03-19T00:41:20.867Z,97800.53
2018-03-19T00:43:48.458Z,97797.27
2018-03-19T00:46:16.109Z,97776.98
2018-03-19T00:48:43.733Z,97768.70
2018-03-19T00:51:11.288Z,97775.99
2018-03-19T00:53:38.870Z,97778.52
2018-03-19T00:56:07.085Z,97779.97
2018-03-19T00:58:34.671Z,97780.36
2018-03-19T01:01:02.322Z,97779.46
2018-03-19T01:03:29.955Z,97761.39
2018-03-19T01:05:57.529Z,97757.75
2018-03-19T01:08:25.106Z,97755.72
2018-03-19T01:10:52.795Z,97772.38
2018-03-19T01:13:20.359Z,97768.87
2018-03-19T01:15:47.944Z,97760.58
2018-03-19T01:18:15.585Z,97750.39
2018-03-19T01:20:43.245Z,97739.86
2018-03-19T01:23:10.836Z,97748.41
2018-03-19T01:25:38.528Z,97744.00
2018-03-19T01:28:06.116Z,97742.75
2018-03-19T01:30:33.689Z,97747.08
2018-03-19T01:33:01.319Z,97751.44
2018-03-19T01:35:28.905Z,97759.39
2018-03-19T01:37:56.537Z,97756.38
2018-03-19T01:40:24.171Z,97745.02
2018-03-19T01:42:51.737Z,97751.98
2018-03-19T01:45:19.377Z,97755.17
2018-03-19T01:47:47.132Z,97753.33
2018-03-19T01:50:14.714Z,97762.75
2018-03-19T01:52:49.346Z,97755.38
2018-03-19T01:55:16.909Z,97744.09
2018-03-19T01:57:44.477Z,97740.82
2018-03-19T02:00:12.227Z,97750.12
2018-03-19T02:02:39.830Z,97753.69
2018-03-19T02:05:07.419Z,97766.98
2018-03-19T02:07:35.053Z,97768.49
2018-03-19T02:10:02.617Z,97759.14
2018-03-19T02:12:30.181Z,97755.13
2018-03-19T02:14:57.815Z,97745.29
2018-03-19T02:17:25.374Z,97749.30
2018-03-19T02:19:52.962Z,97754.14
2018-03-19T02:22:20.609Z,97748.14
2018-03-19T02:24:48.179Z,97751.25
2018-03-19T02:27:15.817Z,97749.45
2018-03-19T02:29:43.448Z,97759.30
2018-03-19T02:32:11.037Z,97759.05
2018-03-19T02:34:38.613Z,97744.55
2018-03-19T02:37:06.380Z,97747.41
2018-03-19T02:39:33.942Z,97758.50
2018-03-19T02:42:01.509Z,97773.34
2018-03-19T02:44:29.132Z,97787.33
2018-03-19T02:46:56.760Z,97793.08
2018-03-19T02:49:24.550Z,97790.30
2018-03-19T02:51:52.549Z,97793.53
2018-03-19T02:54:20.716Z,97785.04
2018-03-19T02:56:48.283Z,97782.13
2018-03-19T02:59:15.898Z,97777.67
2018-03-19T03:01:43.467Z,97778.80
2018-03-19T03:04:11.045Z,97788.41
2018-03-19T03:06:38.705Z,97788.23
2018-03-19T03:09:06.295Z,97788.09
2018-03-19T03:11:33.865Z,97780.77
2018-03-19T03:14:01.484Z,97786.80
2018-03-19T03:16:29.089Z,97773.92
2018-03-19T03:18:56.673Z,97792.17
2018-03-19T03:21:24.891Z,97795.19
2018-03-19T03:23:52.472Z,97766.30
2018-03-19T03:26:20.049Z,97757.98
2018-03-19T03:28:47.742Z,97760.27
2018-03-19T03:31:15.376Z,97767.74
2018-03-19T03:33:43.015Z,97794.48
2018-03-19T03:36:10.749Z,97815.84
2018-03-19T03:38:38.304Z,97811.32
2018-03-19T03:41:05.884Z,97816.45
2018-03-19T03:43:33.546Z,97822.34
2018-03-19T03:46:01.134Z,97828.23
2018-03-19T03:48:28.720Z,97814.10
2018-03-19T03:50:56.455Z,97803.50
2018-03-19T03:53:24.038Z,97808.56
2018-03-19T03:55:51.626Z,97810.52
2018-03-19T03:58:19.301Z,97802.59
2018-03-19T04:00:46.868Z,97798.47
2018-03-19T04:03:14.445Z,97796.30
2018-03-19T04:05:42.063Z,97786.09
2018-03-19T04:08:09.627Z,97789.06
2018-03-19T04:10:37.217Z,97793.17
2018-03-19T04:13:04.897Z,97799.86
2018-03-19T04:15:32.463Z,97800.34
2018-03-19T04:18:00.049Z,97802.58
2018-03-19T04:20:27.686Z,97809.16
2018-03-19T04:22:55.325Z,97813.38
2018-03-19T04:25:22.920Z,97818.08
2018-03-19T04:27:50.578Z,97818.84
2018-03-19T04:30:18.649Z,97828.27
2018-03-19T04:32:46.220Z,97830.02
2018-03-19T04:35:13.849Z,97831.60
2018-03-19T04:37:42.296Z,97825.31
2018-03-19T04:40:09.894Z,97837.94
2018-03-19T04:42:37.524Z,97841.09
2018-03-19T04:45:05.145Z,97842.14
2018-03-19T04:47:32.716Z,97842.86
2018-03-19T04:50:00.354Z,97858.75
2018-03-19T04:52:28.018Z,97849.19
2018-03-19T04:54:55.600Z,97855.47
2018-03-19T04:57:23.264Z,97860.23
2018-03-19T04:59:50.832Z,97868.73
2018-03-19T05:02:19.182Z,97863.77
2018-03-19T05:04:47.573Z,97866.90
2018-03-19T05:07:15.148Z,97864.17
2018-03-19T05:09:42.721Z,97866.17
2018-03-19T05:12:11.181Z,97873.38
2018-03-19T05:14:38.774Z,97865.47
2018-03-19T05:17:06.384Z,97868.80
2018-03-19T05:19:34.009Z,97861.46
2018-03-19T05:22:01.593Z,97867.84
2018-03-19T05:24:29.157Z,97875.77
2018-03-19T05:26:56.781Z,97873.17
2018-03-19T05:29:24.353Z,97889.26
2018-03-19T05:31:51.934Z,97893.62
2018-03-19T05:34:19.542Z,97901.79
2018-03-19T05:36:47.166Z,97906.44
2018-03-19T05:39:15.850Z,97906.39
2018-03-19T05:41:43.517Z,97919.72
2018-03-19T05:44:11.090Z,97905.71
2018-03-19T05:46:39.240Z,97910.02
2018-03-19T05:49:06.866Z,97909.05
2018-03-19T05:51:34.481Z,97920.13
2018-03-19T05:54:02.208Z,97921.45
2018-03-19T05:56:29.914Z,97928.82
2018-03-19T05:58:58.272Z,97926.87
2018-03-19T06:01:25.848Z,97925.47
2018-03-19T06:03:54.232Z,97927.42
2018-03-19T06:06:21.819Z,97941.28
2018-03-19T06:08:49.390Z,97934.44
2018-03-19T06:11:17.085Z,97949.34
2018-03-19T06:13:44.649Z,97935.27
2018-03-19T06:16:12.290Z,97942.78
2018-03-19T06:18:39.930Z,97925.19
2018-03-19T06:21:07.497Z,97939.97
2018-03-19T06:23:35.155Z,97934.23
2018-03-19T06:26:02.781Z,97941.80
2018-03-19T06:28:30.360Z,97961.25
2018-03-19T06:30:58.045Z,97967.77
2018-03-19T06:33:25.668Z,97970.28
2018-03-19T06:35:53.265Z,97963.78
2018-03-19T06:38:20.885Z,97958.17
2018-03-19T06:40:48.519Z,97969.64
2018-03-19T06:43:16.111Z,97962.02
2018-03-19T06:45:43.698Z,97965.17
2018-03-19T06:48:11.358Z,97953.92
2018-03-19T06:50:38.951Z,97968.17
2018-03-19T06:53:06.590Z,97972.27
2018-03-19T06:55:34.318Z,97974.83
2018-03-19T06:58:01.909Z,97974.83
2018-03-19T07:00:29.507Z,97964.97
2018-03-19T07:02:57.208Z,97968.55
2018-03-19T07:05:24.871Z,97972.88
2018-03-19T07:07:52.500Z,97966.49
2018-03-19T07:10:20.143Z,97966.98
2018-03-19T07:12:47.765Z,97974.49
2018-03-19T07:15:15.351Z,97976.44
2018-03-19T07:17:43.045Z,97986.12
2018-03-19T07:20:10.637Z,97988.20
2018-03-19T07:22:38.251Z,97988.14
2018-03-19T07:25:06.041Z,97989.67
2018-03-19T07:27:33.700Z,97983.11
2018-03-19T07:30:01.360Z,97983.73
2018-03-19T07:32:29.075Z,97977.78
2018-03-19T07:34:56.639Z,97972.88
2018-03-19T07:37:24.315Z,97989.95
2018-03-19T07:39:51.974Z,98009.50
2018-03-19T07:42:19.624Z,98014.12
2018-03-19T07:44:47.227Z,98003.30
2018-03-19T07:47:14.875Z,97973.70
2018-03-19T07:49:42.471Z,97977.27
2018-03-19T07:52:10.070Z,97983.91
2018-03-19T07:54:37.782Z,97975.08
2018-03-19T07:57:05.455Z,97980.30
2018-03-19T07:59:33.029Z,97989.03
2018-03-19T08:02:00.728Z,97978.45
2018-03-19T08:04:28.365Z,97987.76
2018-03-19T08:06:55.951Z,97983.22
2018-03-19T08:09:23.863Z,97980.62
2018-03-19T08:11:51.466Z,97986.02
2018-03-19T08:14:19.068Z,97995.82
2018-03-19T08:16:46.700Z,97994.56
2018-03-19T08:19:14.310Z,97992.48
2018-03-19T08:21:41.886Z,97974.64
2018-03-19T08:24:09.527Z,97993.95
2018-03-19T08:26:37.131Z,97990.66
2018-03-19T08:29:05.439Z,97978.61
2018-03-19T08:31:33.104Z,97971.33
2018-03-19T08:34:00.749Z,97971.63
2018-03-19T08:36:28.339Z,97964.53
2018-03-19T08:38:55.979Z,97950.61
2018-03-19T08:41:23.576Z,97958.67
2018-03-19T08:43:51.200Z,97965.67
2018-03-19T08:46:18.859Z,97968.88
2018-03-19T08:48:46.459Z,97978.18
2018-03-19T08:51:14.064Z,97972.80
2018-03-19T08:53:41.706Z,97977.77
2018-03-19T08:56:09.347Z,97978.83
2018-03-19T08:58:37.082Z,97972.71
2018-03-19T09:01:04.794Z,97974.00
2018-03-19T09:03:32.390Z,97973.20
2018-03-19T09:05:59.987Z,97977.37
2018-03-19T09:08:27.640Z,97975.66
2018-03-19T09:10:55.234Z,97980.02
2018-03-19T09:13:22.818Z,97976.66
2018-03-19T09:15:50.850Z,97976.17
2018-03-19T09:18:18.455Z,97971.12
2018-03-19T09:20:46.099Z,97976.66
2018-03-19T09:23:13.866Z,97973.92
2018-03-19T09:25:41.532Z,97969.11
2018-03-19T09:28:09.125Z,97973.00
2018-03-19T09:30:36.802Z,97973.17
2018-03-19T09:33:04.382Z,97968.80
2018-03-19T09:35:31.988Z,97971.98
2018-03-19T09:38:00.018Z,97980.30
2018-03-19T09:40:27.652Z,97978.14
2018-03-19T09:42:55.243Z,97971.41
2018-03-19T09:45:23.894Z,97973.71
2018-03-19T09:47:51.470Z,97975.60
2018-03-19T09:50:19.090Z,97976.09
2018-03-19T09:52:46.722Z,97965.87
2018-03-19T09:55:14.331Z,97958.59
2018-03-19T09:57:41.970Z,97966.14
2018-03-19T10:00:09.782Z,97966.63
2018-03-19T10:02:37.388Z,97969.92
2018-03-19T10:05:04.975Z,97960.61
2018-03-19T10:07:32.669Z,97956.56
2018-03-19T10:10:00.287Z,97959.16
2018-03-19T10:12:27.875Z,97963.28
2018-03-19T10:14:55.532Z,97952.92
2018-03-19T10:17:23.169Z,97962.50
2018-03-19T10:19:50.818Z,97961.23
2018-03-19T10:22:18.478Z,97958.44
2018-03-19T10:24:46.073Z,97958.08
2018-03-19T10:27:13.728Z,97951.37
2018-03-19T10:29:41.376Z,97953.20
2018-03-19T10:32:09.020Z,97945.98
2018-03-19T10:34:36.605Z,97941.28
2018-03-19T10:37:04.299Z,97937.09
2018-03-19T10:39:31.959Z,97933.33
2018-03-19T10:41:59.556Z,97921.13
2018-03-19T10:44:27.235Z,97927.91
2018-03-19T10:46:54.835Z,97925.58
2018-03-19T10:49:22.427Z,97930.83
2018-03-19T10:51:50.083Z,97913.78
2018-03-19T10:54:17.700Z,97913.14
2018-03-19T10:56:45.300Z,97917.49
2018-03-19T10:59:12.998Z,97911.39
2018-03-19T11:01:43.655Z,97910.25
2018-03-19T11:04:11.292Z,97915.05
2018-03-19T11:06:44.361Z,97913.58
2018-03-19T11:09:17.900Z,97900.05
2018-03-19T11:11:45.576Z,97886.19
2018-03-19T11:14:13.150Z,97889.76
2018-03-19T11:16:40.814Z,97892.34
2018-03-19T11:19:08.456Z,97883.82
2018-03-19T11:21:36.068Z,97876.79
2018-03-19T11:24:03.674Z,97881.34
2018-03-19T11:26:31.332Z,97874.32
2018-03-19T11:28:58.938Z,97872.25
2018-03-19T11:31:26.562Z,97872.94
2018-03-19T11:33:54.212Z,97870.81
2018-03-19T11:36:22.729Z,97873.28
2018-03-19T11:38:50.318Z,97859.36
2018-03-19T11:41:18.195Z,97871.22
2018-03-19T11:43:45.783Z,97866.86
2018-03-19T11:46:13.375Z,97860.72
2018-03-19T11:48:41.028Z,97868.50
2018-03-19T11:51:08.670Z,97870.66
2018-03-19T11:53:36.261Z,97861.08
2018-03-19T11:56:04.047Z,97853.25
2018-03-19T11:58:31.661Z,97833.27
2018-03-19T12:00:59.258Z,97827.81
2018-03-19T12:03:27.058Z,97844.08
2018-03-19T12:05:54.655Z,97841.39
2018-03-19T12:08:22.244Z,97835.59
2018-03-19T12:10:49.888Z,97841.25
2018-03-19T12:13:17.464Z,97848.20
2018-03-19T12:15:45.068Z,97851.62
2018-03-19T12:18:12.925Z,97845.03
2018-03-19T12:20:40.509Z,97851.69
2018-03-19T12:23:08.126Z,97846.97
2018-03-19T12:25:35.765Z,97840.97
2018-03-19T12:28:03.350Z,97832.38
2018-03-19T12:30:30.968Z,97830.52
2018-03-19T12:32:58.616Z,97841.23
2018-03-19T12:35:26.183Z,97838.91
2018-03-19T12:37:53.763Z,97837.95
2018-03-19T12:40:21.401Z,97836.39
2018-03-19T12:42:49.005Z,97834.59
2018-03-19T12:45:16.602Z,97826.96
2018-03-19T12:47:44.238Z,97820.17
2018-03-19T12:50:11.838Z,97822.72
2018-03-19T12:52:39.409Z,97818.72
2018-03-19T12:55:07.062Z,97795.25
2018-03-19T12:57:34.701Z,97791.95
2018-03-19T13:00:02.264Z,97779.59
2018-03-19T13:02:29.914Z,97762.89
2018-03-19T13:04:57.632Z,97772.02
2018-03-19T13:07:25.821Z,97765.60
2018-03-19T13:09:53.498Z,97769.05
2018-03-19T13:12:21.098Z,97768.05
2018-03-19T13:14:48.676Z,97776.10
2018-03-19T13:17:16.315Z,97781.32
2018-03-19T13:19:44.552Z,97782.59
2018-03-19T13:22:12.156Z,97784.51
2018-03-19T13:24:39.856Z,97767.61
2018-03-19T13:27:07.417Z,97759.25
2018-03-19T13:29:35.030Z,97758.49
2018-03-19T13:32:02.667Z,97757.39
2018-03-19T13:34:30.261Z,97767.28
2018-03-19T13:36:57.840Z,97780.50
2018-03-19T13:39:25.467Z,97784.29
2018-03-19T13:41:53.084Z,97776.70
2018-03-19T13:44:20.673Z,97772.19
2018-03-19T13:46:48.599Z,97768.55
2018-03-19T13:49:16.179Z,97779.17
2018-03-19T13:51:43.765Z,97782.86
2018-03-19T13:54:11.401Z,97774.89
2018-03-19T13:56:38.988Z,97768.43
2018-03-19T13:59:06.645Z,97768.47
2018-03-19T14:01:34.288Z,97759.38
2018-03-19T14:04:01.873Z,97763.24
2018-03-19T14:06:29.610Z,97773.05
2018-03-19T14:08:57.270Z,97756.70
2018-03-19T14:11:24.861Z,97750.02
2018-03-19T14:13:52.453Z,97754.52
2018-03-19T14:16:20.081Z,97749.66
2018-03-19T14:18:47.674Z,97746.51
2018-03-19T14:21:15.256Z,97745.34
2018-03-19T14:23:42.896Z,97748.47
2018-03-19T14:26:10.497Z,97751.63
2018-03-19T14:28:38.101Z,97746.20
2018-03-19T14:31:05.726Z,97742.52
2018-03-19T14:33:33.307Z,97740.00
2018-03-19T14:36:00.903Z,97732.84
2018-03-19T14:38:28.552Z,97725.50
2018-03-19T14:40:56.137Z,97725.97
2018-03-19T14:43:23.713Z,97717.71
2018-03-19T14:45:51.353Z,97708.53
2018-03-19T14:48:18.949Z,97721.47
2018-03-19T14:50:46.636Z,97724.88
2018-03-19T14:53:14.186Z,97716.31
2018-03-19T14:55:41.774Z,97700.47
2018-03-19T14:58:09.356Z,97696.84
2018-03-19T15:00:36.991Z,97696.31
2018-03-19T15:03:04.590Z,97691.03
2018-03-19T15:05:32.168Z,97704.75
2018-03-19T15:07:59.960Z,97701.24
2018-03-19T15:10:27.553Z,97699.19
2018-03-19T15:12:55.139Z,97694.50
2018-03-19T15:15:22.785Z,97682.61
2018-03-19T15:17:50.374Z,97683.66
2018-03-19T15:20:17.957Z,97689.41
2018-03-19T15:22:45.589Z,97688.09
2018-03-19T15:25:13.165Z,97678.66
2018-03-19T15:27:40.793Z,97684.58
2018-03-19T15:30:08.437Z,97681.70
2018-03-19T15:32:36.027Z,97680.30
2018-03-19T15:35:03.668Z,97680.02
2018-03-19T15:37:31.311Z,97678.31
2018-03-19T15:39:58.898Z,97674.08
2018-03-19T15:42:26.477Z,97659.51
2018-03-19T15:44:54.125Z,97660.35
2018-03-19T15:47:21.710Z,97655.83
2018-03-19T15:49:49.345Z,97660.91
2018-03-19T15:52:17.238Z,97659.02
2018-03-19T15:54:44.820Z,97653.73
2018-03-19T15:57:12.401Z,97654.72
2018-03-19T15:59:40.053Z,97654.56
2018-03-19T16:02:07.642Z,97662.99
2018-03-19T16:04:35.243Z,97662.11
2018-03-19T16:07:02.883Z,97665.42
2018-03-19T16:09:30.669Z,97674.95
2018-03-19T16:11:58.268Z,97674.83
2018-03-19T16:14:25.911Z,97673.83
2018-03-19T16:16:53.494Z,97673.64
2018-03-19T16:19:21.074Z,97673.08
2018-03-19T16:21:48.756Z,97668.93
2018-03-19T16:24:16.349Z,97667.17
2018-03-19T16:26:43.930Z,97660.66
2018-03-19T16:29:11.566Z,97664.40
2018-03-19T16:31:39.164Z,97675.44
2018-03-19T16:34:06.762Z,97679.38
2018-03-19T16:36:34.404Z,97688.81
2018-03-19T16:39:02.022Z,97697.27
2018-03-19T16:41:29.658Z,97699.64
2018-03-19T16:43:57.572Z,97697.17
2018-03-19T16:46:25.166Z,97703.78
2018-03-19T16:48:52.748Z,97711.03
2018-03-19T16:51:20.447Z,97705.45
2018-03-19T16:53:48.035Z,97694.02
2018-03-19T16:56:15.692Z,97685.01
2018-03-19T16:58:43.321Z,97694.27
2018-03-19T17:01:10.928Z,97681.78
2018-03-19T17:03:38.510Z,97679.08
2018-03-19T17:06:06.182Z,97662.45
2018-03-19T17:08:33.771Z,97659.27
2018-03-19T17:11:01.421Z,97649.89
2018-03-19T17:13:29.058Z,97646.13
2018-03-19T17:15:56.636Z,97644.41
2018-03-19T17:18:24.278Z,97651.33
2018-03-19T17:20:52.127Z,97654.35
2018-03-19T17:23:19.720Z,97658.95
2018-03-19T17:25:47.446Z,97667.05
2018-03-19T17:28:15.158Z,97674.11
2018-03-19T17:30:42.821Z,97661.76
2018-03-19T17:33:10.504Z,97662.25
2018-03-19T17:35:38.448Z,97661.64
2018-03-19T17:38:06.233Z,97661.99
2018-03-19T17:40:34.066Z,97651.27
2018-03-19T17:43:02.343Z,97645.34
2018-03-19T17:45:30.215Z,97659.23
2018-03-19T17:47:58.082Z,97656.51
2018-03-19T17:50:26.267Z,97658.88
2018-03-19T17:52:54.130Z,97669.00
2018-03-19T17:55:22.026Z,97674.08
2018-03-19T17:57:49.922Z,97679.97
2018-03-19T18:00:17.837Z,97678.52
2018-03-19T18:02:45.690Z,97689.77
2018-03-19T18:05:13.637Z,97694.38
2018-03-19T18:07:41.617Z,97704.75
2018-03-19T18:10:09.496Z,97705.66
2018-03-19T18:12:37.699Z,97708.13
2018-03-19T18:15:05.593Z,97704.19
2018-03-19T18:17:33.456Z,97702.44
2018-03-19T18:20:01.372Z,97697.34
2018-03-19T18:22:29.220Z,97697.55
2018-03-19T18:24:57.114Z,97693.77
2018-03-19T18:27:24.986Z,97700.22
2018-03-19T18:29:52.862Z,97703.34
2018-03-19T18:32:20.763Z,97695.84
2018-03-19T18:34:48.641Z,97699.35
2018-03-19T18:37:16.551Z,97697.25
2018-03-19T18:39:44.413Z,97697.55
2018-03-19T18:42:12.349Z,97686.44
2018-03-19T18:44:40.181Z,97691.45
2018-03-19T18:47:08.128Z,97685.57
2018-03-19T18:49:36.024Z,97698.38
2018-03-19T18:52:03.997Z,97705.13
2018-03-19T18:54:31.874Z,97695.84
2018-03-19T18:57:00.050Z,97701.48
2018-03-19T18:59:27.925Z,97700.09
2018-03-19T19:01:55.765Z,97699.05
2018-03-19T19:04:23.613Z,97690.64
2018-03-19T19:06:51.411Z,97699.61
2018-03-19T19:09:19.315Z,97684.58
2018-03-19T19:11:47.496Z,97677.97
2018-03-19T19:14:15.552Z,97675.66
2018-03-19T19:16:43.411Z,97666.03
2018-03-19T19:19:11.385Z,97657.22
2018-03-19T19:21:39.360Z,97659.39
2018-03-19T19:24:07.291Z,97645.33
2018-03-19T19:26:35.186Z,97657.69
2018-03-19T19:29:03.013Z,97655.46
2018-03-19T19:31:30.858Z,97659.33
2018-03-19T19:33:58.757Z,97661.13
2018-03-19T19:36:26.578Z,97656.72
2018-03-19T19:38:54.418Z,97664.94
2018-03-19T19:41:22.629Z,97657.78
2018-03-19T19:43:50.437Z,97651.17
2018-03-19T19:46:18.228Z,97665.79
2018-03-19T19:48:46.330Z,97665.03
2018-03-19T19:51:14.154Z,97654.62
2018-03-19T19:53:41.981Z,97655.21
2018-03-19T19:56:09.928Z,97652.09
2018-03-19T19:58:38.556Z,97634.75
2018-03-19T20:01:06.414Z,97622.96
2018-03-19T20:03:34.265Z,97619.56
2018-03-19T20:06:02.171Z,97625.52
2018-03-19T20:08:30.014Z,97623.77
2018-03-19T20:10:57.950Z,97627.41
2018-03-19T20:13:25.868Z,97626.69
2018-03-19T20:15:53.877Z,97630.22
2018-03-19T20:18:21.734Z,97616.61
2018-03-19T20:20:49.566Z,97613.35
2018-03-19T20:23:17.449Z,97606.80
2018-03-19T20:25:45.375Z,97608.05
2018-03-19T20:28:13.225Z,97609.80
2018-03-19T20:30:41.184Z,97613.34
2018-03-19T20:33:09.090Z,97609.38
2018-03-19T20:35:36.874Z,97598.12
2018-03-19T20:38:04.681Z,97583.06
2018-03-19T20:40:32.353Z,97581.66
2018-03-19T20:42:59.948Z,97584.11
2018-03-19T20:45:27.559Z,97576.82
2018-03-19T20:47:55.419Z,97574.67
2018-03-19T20:50:22.993Z,97570.13
2018-03-19T20:52:50.580Z,97563.25
2018-03-19T20:55:18.705Z,97569.94
2018-03-19T20:57:46.284Z,97564.95
2018-03-19T21:00:13.903Z,97561.30
2018-03-19T21:02:41.553Z,97556.38
2018-03-19T21:05:09.148Z,97556.75
2018-03-19T21:07:36.720Z,97550.16
2018-03-19T21:10:04.364Z,97552.63
2018-03-19T21:12:32.014Z,97543.06
2018-03-19T21:14:59.584Z,97543.14
2018-03-19T21:17:28.450Z,97536.09
2018-03-19T21:19:56.086Z,97528.60
2018-03-19T21:22:23.677Z,97536.11
2018-03-19T21:24:51.302Z,97530.84
2018-03-19T21:27:18.878Z,97540.11
2018-03-19T21:29:46.573Z,97531.10
2018-03-19T21:32:14.263Z,97528.95
2018-03-19T21:34:41.832Z,97526.88
2018-03-19T21:37:09.409Z,97520.56
2018-03-19T21:39:37.194Z,97519.57
2018-03-19T21:42:04.856Z,97509.06
2018-03-19T21:44:32.431Z,97513.34
2018-03-19T21:47:00.150Z,97504.00
2018-03-19T21:49:27.800Z,97497.31
2018-03-19T21:51:55.448Z,97491.63
2018-03-19T21:54:23.095Z,97491.06
2018-03-19T21:56:50.703Z,97489.30
2018-03-19T21:59:18.285Z,97489.88
2018-03-19T22:01:46.182Z,97491.38
2018-03-19T22:04:13.740Z,97484.56
2018-03-19T22:06:41.329Z,97480.98
2018-03-19T22:09:09.096Z,97471.64
2018-03-19T22:11:36.748Z,97469.05
2018-03-19T22:14:04.452Z,97465.47
2018-03-19T22:16:32.356Z,97463.23
2018-03-19T22:19:00.115Z,97454.39
2018-03-19T22:21:27.704Z,97454.06
2018-03-19T22:23:55.323Z,97441.48
2018-03-19T22:26:22.889Z,97441.76
2018-03-19T22:28:50.466Z,97443.41
2018-03-19T22:31:18.081Z,97437.16
2018-03-19T22:33:45.657Z,97429.58
2018-03-19T22:36:13.254Z,97419.59
2018-03-19T22:38:40.865Z,97421.34
2018-03-19T22:41:08.440Z,97420.66
2018-03-19T22:43:36.030Z,97416.43
2018-03-19T22:46:03.694Z,97415.09
2018-03-19T22:48:31.327Z,97422.92
2018-03-19T22:50:59.850Z,97423.41
2018-03-19T22:53:27.724Z,97410.66
2018-03-19T22:55:56.000Z,97423.09
2018-03-19T22:58:23.582Z,97417.48
2018-03-19T23:00:51.485Z,97418.97
2018-03-19T23:03:19.056Z,97412.30
2018-03-19T23:05:46.701Z,97410.05
2018-03-19T23:08:14.313Z,97406.45
2018-03-19T23:10:41.899Z,97394.70
2018-03-19T23:13:09.467Z,97391.52
2018-03-19T23:15:37.112Z,97389.77
2018-03-19T23:18:04.673Z,97384.84
2018-03-19T23:20:32.334Z,97385.06
2018-03-19T23:23:00.022Z,97379.29
2018-03-19T23:25:27.585Z,97381.46
2018-03-19T23:27:55.164Z,97371.78
2018-03-19T23:30:23.058Z,97379.30
2018-03-19T23:32:50.621Z,97374.72
2018-03-19T23:35:18.197Z,97375.20
2018-03-19T23:37:45.822Z,97369.02
2018-03-19T23:40:13.410Z,97358.09
2018-03-19T23:42:41.038Z,97362.81
2018-03-19T23:45:08.942Z,97357.80
2018-03-19T23:47:36.517Z,97343.76
2018-03-19T23:50:04.197Z,97329.70
2018-03-19T23:52:31.830Z,97329.84
2018-03-19T23:54:59.407Z,97326.85
2018-03-19T23:57:26.965Z,97331.42
2018-03-19T23:59:54.577Z,97333.73
